sensor_id;sensor_type;location;lat;lon;timestamp;P1;P2;P0
58740;PMS7003;44512;53.046;18.604;2024-01-07T00:02:21;4;4;3
58740;PMS7003;44512;53.046;18.604;2024-01-07T00:12:49;7;7;4
58740;PMS7003;44512;53.046;18.604;2024-01-07T00:23:18;6;4;4
58740;PMS7003;44512;53.046;18.604;2024-01-07T00:33:46;9;7;5
58740;PMS7003;44512;53.046;18.604;2024-01-07T00:44:15;7;5;4
58740;PMS7003;44512;53.046;18.604;2024-01-07T00:54:43;8;4;3
58740;PMS7003;44512;53.046;18.604;2024-01-07T01:05:11;4;2;1
58740;PMS7003;44512;53.046;18.604;2024-01-07T01:15:40;11;4;4
58740;PMS7003;44512;53.046;18.604;2024-01-07T01:26:08;8;4;3
58740;PMS7003;44512;53.046;18.604;2024-01-07T01:36:37;7;6;4
58740;PMS7003;44512;53.046;18.604;2024-01-07T01:47:05;7;5;4
58740;PMS7003;44512;53.046;18.604;2024-01-07T01:57:34;10;6;5
58740;PMS7003;44512;53.046;18.604;2024-01-07T02:08:02;6;5;3
58740;PMS7003;44512;53.046;18.604;2024-01-07T02:18:31;5;4;3
58740;PMS7003;44512;53.046;18.604;2024-01-07T02:28:59;6;4;3
58740;PMS7003;44512;53.046;18.604;2024-01-07T02:39:28;8;7;5
58740;PMS7003;44512;53.046;18.604;2024-01-07T02:49:56;7;5;4
58740;PMS7003;44512;53.046;18.604;2024-01-07T03:00:24;7;5;4
58740;PMS7003;44512;53.046;18.604;2024-01-07T03:10:53;6;4;3
58740;PMS7003;44512;53.046;18.604;2024-01-07T03:21:22;6;5;4
58740;PMS7003;44512;53.046;18.604;2024-01-07T03:31:50;10;6;5
58740;PMS7003;44512;53.046;18.604;2024-01-07T03:42:18;10;7;6
58740;PMS7003;44512;53.046;18.604;2024-01-07T03:52:47;10;6;5
58740;PMS7003;44512;53.046;18.604;2024-01-07T04:03:15;6;6;4
58740;PMS7003;44512;53.046;18.604;2024-01-07T04:13:44;10;7;5
58740;PMS7003;44512;53.046;18.604;2024-01-07T04:24:13;8;6;5
58740;PMS7003;44512;53.046;18.604;2024-01-07T04:34:41;8;6;5
58740;PMS7003;44512;53.046;18.604;2024-01-07T04:45:09;11;8;6
58740;PMS7003;44512;53.046;18.604;2024-01-07T04:55:38;11;8;5
58740;PMS7003;44512;53.046;18.604;2024-01-07T05:06:09;10;8;7
58740;PMS7003;44512;53.046;18.604;2024-01-07T05:16:35;10;9;7
58740;PMS7003;44512;53.046;18.604;2024-01-07T05:27:03;12;8;7
58740;PMS7003;44512;53.046;18.604;2024-01-07T05:37:31;9;8;5
58740;PMS7003;44512;53.046;18.604;2024-01-07T05:48:00;11;8;6
58740;PMS7003;44512;53.046;18.604;2024-01-07T05:58:29;8;4;2
58740;PMS7003;44512;53.046;18.604;2024-01-07T06:08:57;11;8;6
58740;PMS7003;44512;53.046;18.604;2024-01-07T06:19:25;11;8;7
58740;PMS7003;44512;53.046;18.604;2024-01-07T06:29:54;12;8;7
58740;PMS7003;44512;53.046;18.604;2024-01-07T06:40:22;12;8;6
58740;PMS7003;44512;53.046;18.604;2024-01-07T06:50:50;9;8;6
58740;PMS7003;44512;53.046;18.604;2024-01-07T07:01:22;13;10;7
58740;PMS7003;44512;53.046;18.604;2024-01-07T07:11:47;13;10;8
58740;PMS7003;44512;53.046;18.604;2024-01-07T07:22:16;10;7;5
58740;PMS7003;44512;53.046;18.604;2024-01-07T07:32:44;12;9;7
58740;PMS7003;44512;53.046;18.604;2024-01-07T07:43:13;15;13;10
58740;PMS7003;44512;53.046;18.604;2024-01-07T07:53:41;14;11;7
58740;PMS7003;44512;53.046;18.604;2024-01-07T08:04:10;10;8;6
58740;PMS7003;44512;53.046;18.604;2024-01-07T08:14:38;11;9;7
58740;PMS7003;44512;53.046;18.604;2024-01-07T08:25:07;10;9;7
58740;PMS7003;44512;53.046;18.604;2024-01-07T08:35:36;13;8;7
58740;PMS7003;44512;53.046;18.604;2024-01-07T08:46:04;14;11;7
58740;PMS7003;44512;53.046;18.604;2024-01-07T08:56:32;13;9;7
58740;PMS7003;44512;53.046;18.604;2024-01-07T09:07:01;17;11;9
58740;PMS7003;44512;53.046;18.604;2024-01-07T09:17:29;15;11;7
58740;PMS7003;44512;53.046;18.604;2024-01-07T09:27:58;15;10;8
58740;PMS7003;44512;53.046;18.604;2024-01-07T09:38:26;17;10;8
58740;PMS7003;44512;53.046;18.604;2024-01-07T09:48:55;16;10;8
58740;PMS7003;44512;53.046;18.604;2024-01-07T09:59:23;14;10;7
58740;PMS7003;44512;53.046;18.604;2024-01-07T10:09:51;12;9;7
58740;PMS7003;44512;53.046;18.604;2024-01-07T10:20:20;12;10;7
58740;PMS7003;44512;53.046;18.604;2024-01-07T10:30:51;13;9;7
58740;PMS7003;44512;53.046;18.604;2024-01-07T10:41:20;14;8;6
58740;PMS7003;44512;53.046;18.604;2024-01-07T10:51:45;14;11;9
58740;PMS7003;44512;53.046;18.604;2024-01-07T11:02:14;14;11;9
58740;PMS7003;44512;53.046;18.604;2024-01-07T11:12:42;13;9;7
58740;PMS7003;44512;53.046;18.604;2024-01-07T11:33:41;13;11;7
58740;PMS7003;44512;53.046;18.604;2024-01-07T11:49:10;12;10;8
58740;PMS7003;44512;53.046;18.604;2024-01-07T11:59:39;12;10;7
58740;PMS7003;44512;53.046;18.604;2024-01-07T12:10:08;17;12;10
58740;PMS7003;44512;53.046;18.604;2024-01-07T12:20:36;15;10;7
58740;PMS7003;44512;53.046;18.604;2024-01-07T12:31:04;15;11;7
58740;PMS7003;44512;53.046;18.604;2024-01-07T12:41:33;11;9;7
58740;PMS7003;44512;53.046;18.604;2024-01-07T12:52:01;11;10;8
58740;PMS7003;44512;53.046;18.604;2024-01-07T13:02:30;20;13;10
58740;PMS7003;44512;53.046;18.604;2024-01-07T13:12:58;16;11;6
58740;PMS7003;44512;53.046;18.604;2024-01-07T13:23:26;12;11;8
58740;PMS7003;44512;53.046;18.604;2024-01-07T13:33:55;18;14;9
58740;PMS7003;44512;53.046;18.604;2024-01-07T13:44:24;16;10;7
58740;PMS7003;44512;53.046;18.604;2024-01-07T13:54:52;14;10;8
58740;PMS7003;44512;53.046;18.604;2024-01-07T14:05:20;18;15;11
58740;PMS7003;44512;53.046;18.604;2024-01-07T14:15:49;15;12;9
58740;PMS7003;44512;53.046;18.604;2024-01-07T14:26:17;18;14;10
58740;PMS7003;44512;53.046;18.604;2024-01-07T14:36:46;13;8;5
58740;PMS7003;44512;53.046;18.604;2024-01-07T14:47:14;15;9;6
58740;PMS7003;44512;53.046;18.604;2024-01-07T14:57:43;16;12;9
58740;PMS7003;44512;53.046;18.604;2024-01-07T15:08:15;15;11;9
58740;PMS7003;44512;53.046;18.604;2024-01-07T15:18:40;20;15;10
58740;PMS7003;44512;53.046;18.604;2024-01-07T15:29:08;19;15;11
58740;PMS7003;44512;53.046;18.604;2024-01-07T15:39:37;16;11;9
58740;PMS7003;44512;53.046;18.604;2024-01-07T15:50:06;14;12;9
58740;PMS7003;44512;53.046;18.604;2024-01-07T16:00:34;16;13;9
58740;PMS7003;44512;53.046;18.604;2024-01-07T16:11:02;20;14;9
58740;PMS7003;44512;53.046;18.604;2024-01-07T16:21:31;17;12;10
58740;PMS7003;44512;53.046;18.604;2024-01-07T16:31:59;13;10;8
58740;PMS7003;44512;53.046;18.604;2024-01-07T16:42:28;19;14;11
58740;PMS7003;44512;53.046;18.604;2024-01-07T16:52:56;20;15;9
58740;PMS7003;44512;53.046;18.604;2024-01-07T17:03:25;19;10;6
58740;PMS7003;44512;53.046;18.604;2024-01-07T17:13:53;20;14;11
58740;PMS7003;44512;53.046;18.604;2024-01-07T17:24:22;15;15;10
58740;PMS7003;44512;53.046;18.604;2024-01-07T17:34:51;20;16;12
58740;PMS7003;44512;53.046;18.604;2024-01-07T17:45:19;16;13;10
58740;PMS7003;44512;53.046;18.604;2024-01-07T17:55:47;18;14;10
58740;PMS7003;44512;53.046;18.604;2024-01-07T18:06:16;13;12;7
58740;PMS7003;44512;53.046;18.604;2024-01-07T18:16:44;17;14;10
58740;PMS7003;44512;53.046;18.604;2024-01-07T18:27:13;24;17;11
58740;PMS7003;44512;53.046;18.604;2024-01-07T18:37:41;17;15;10
58740;PMS7003;44512;53.046;18.604;2024-01-07T18:48:10;23;17;10
58740;PMS7003;44512;53.046;18.604;2024-01-07T18:58:38;20;17;12
58740;PMS7003;44512;53.046;18.604;2024-01-07T19:09:07;22;16;10
58740;PMS7003;44512;53.046;18.604;2024-01-07T19:19:35;24;17;13
58740;PMS7003;44512;53.046;18.604;2024-01-07T19:30:05;23;19;13
58740;PMS7003;44512;53.046;18.604;2024-01-07T19:40:33;22;20;13
58740;PMS7003;44512;53.046;18.604;2024-01-07T19:51:01;21;15;11
58740;PMS7003;44512;53.046;18.604;2024-01-07T20:01:30;19;14;11
58740;PMS7003;44512;53.046;18.604;2024-01-07T20:11:58;25;19;12
58740;PMS7003;44512;53.046;18.604;2024-01-07T20:22:27;27;16;12
58740;PMS7003;44512;53.046;18.604;2024-01-07T20:32:55;21;17;11
58740;PMS7003;44512;53.046;18.604;2024-01-07T20:43:24;20;17;11
58740;PMS7003;44512;53.046;18.604;2024-01-07T20:53:52;22;14;11
58740;PMS7003;44512;53.046;18.604;2024-01-07T21:04:21;25;18;12
58740;PMS7003;44512;53.046;18.604;2024-01-07T21:14:49;18;15;10
58740;PMS7003;44512;53.046;18.604;2024-01-07T21:25:18;18;17;11
58740;PMS7003;44512;53.046;18.604;2024-01-07T21:35:46;15;13;9
58740;PMS7003;44512;53.046;18.604;2024-01-07T21:46:15;22;17;11
58740;PMS7003;44512;53.046;18.604;2024-01-07T21:56:43;25;18;12
58740;PMS7003;44512;53.046;18.604;2024-01-07T22:07:12;16;14;9
58740;PMS7003;44512;53.046;18.604;2024-01-07T22:17:40;20;15;11
58740;PMS7003;44512;53.046;18.604;2024-01-07T22:28:09;19;15;11
58740;PMS7003;44512;53.046;18.604;2024-01-07T22:38:37;21;16;11
58740;PMS7003;44512;53.046;18.604;2024-01-07T22:49:06;19;15;11
58740;PMS7003;44512;53.046;18.604;2024-01-07T22:59:34;22;15;10
58740;PMS7003;44512;53.046;18.604;2024-01-07T23:10:03;17;14;10
58740;PMS7003;44512;53.046;18.604;2024-01-07T23:20:31;22;18;13
58740;PMS7003;44512;53.046;18.604;2024-01-07T23:31:00;18;15;9
58740;PMS7003;44512;53.046;18.604;2024-01-07T23:41:28;21;14;10
58740;PMS7003;44512;53.046;18.604;2024-01-07T23:51:57;19;13;10
